createdAt,value
2022-10-04T00:01:55.206Z,98463.56
2022-10-04T00:04:27.241Z,98447.34
2022-10-04T00:07:00.395Z,98454.97
2022-10-04T00:09:33.614Z,98477.44
2022-10-04T00:12:04.803Z,98472.28
2022-10-04T00:14:37.183Z,98450.31
2022-10-04T00:17:11.725Z,98464.72
2022-10-04T00:19:47.169Z,98450.75
2022-10-04T00:22:18.604Z,98438.06
2022-10-04T00:25:23.026Z,98464.41
2022-10-04T00:28:19.239Z,98459.22
2022-10-04T00:31:12.258Z,98490.34
2022-10-04T00:33:41.515Z,98450.63
2022-10-04T00:36:46.596Z,98467.94
2022-10-04T00:39:17.920Z,98477.63
2022-10-04T00:41:56.259Z,98487.06
2022-10-04T00:44:30.297Z,98481.00
2022-10-04T00:47:02.206Z,98471.53
2022-10-04T00:49:33.644Z,98477.69
2022-10-04T00:52:04.761Z,98476.75
2022-10-04T00:54:35.293Z,98469.16
2022-10-04T00:57:07.558Z,98483.59
2022-10-04T00:59:38.245Z,98498.38
2022-10-04T01:02:09.537Z,98486.47
2022-10-04T01:04:43.199Z,98488.13
2022-10-04T01:07:14.231Z,98493.25
2022-10-04T01:09:49.341Z,98479.66
2022-10-04T01:12:26.125Z,98505.47
2022-10-04T01:15:00.934Z,98483.50
2022-10-04T01:17:30.730Z,98504.75
2022-10-04T01:19:59.156Z,98462.88
2022-10-04T01:22:42.632Z,98467.16
2022-10-04T01:25:10.992Z,98485.84
2022-10-04T01:27:43.486Z,98495.44
2022-10-04T01:30:15.101Z,98481.91
2022-10-04T01:32:45.351Z,98500.88
2022-10-04T01:35:15.505Z,98472.72
2022-10-04T01:37:45.256Z,98502.78
2022-10-04T01:40:13.710Z,98501.88
2022-10-04T01:42:45.005Z,98499.28
2022-10-04T01:45:18.504Z,98495.31
2022-10-04T01:47:51.387Z,98508.19
2022-10-04T01:50:26.386Z,98450.31
2022-10-04T01:53:01.463Z,98486.94
2022-10-04T01:55:31.920Z,98492.06
2022-10-04T01:58:04.440Z,98488.66
2022-10-04T02:00:41.854Z,98477.69
2022-10-04T02:03:13.730Z,98505.94
2022-10-04T02:05:47.746Z,98500.13
2022-10-04T02:08:18.602Z,98497.69
2022-10-04T02:10:47.895Z,98496.94
2022-10-04T02:13:19.369Z,98501.94
2022-10-04T02:15:48.352Z,98527.03
2022-10-04T02:18:20.767Z,98527.97
2022-10-04T02:20:50.794Z,98514.28
2022-10-04T02:23:21.770Z,98499.13
2022-10-04T02:25:50.218Z,98523.72
2022-10-04T02:28:19.520Z,98527.13
2022-10-04T02:31:10.334Z,98516.78
2022-10-04T02:33:42.317Z,98514.28
2022-10-04T02:36:13.750Z,98513.59
2022-10-04T02:38:47.174Z,98513.47
2022-10-04T02:41:22.558Z,98502.50
2022-10-04T02:43:54.306Z,98523.94
2022-10-04T02:46:25.477Z,98531.72
2022-10-04T02:48:55.101Z,98531.81
2022-10-04T02:51:27.305Z,98528.50
2022-10-04T02:54:06.714Z,98518.22
2022-10-04T02:56:35.341Z,98539.84
2022-10-04T02:59:04.965Z,98520.91
2022-10-04T03:01:45.255Z,98532.97
2022-10-04T03:04:15.168Z,98531.31
2022-10-04T03:06:45.812Z,98493.56
2022-10-04T03:09:16.039Z,98539.81
2022-10-04T03:11:44.774Z,98536.50
2022-10-04T03:14:15.345Z,98534.09
2022-10-04T03:16:45.299Z,98539.09
2022-10-04T03:19:15.262Z,98559.81
2022-10-04T03:21:45.285Z,98563.31
2022-10-04T03:24:18.315Z,98562.56
2022-10-04T03:26:48.654Z,98527.63
2022-10-04T03:29:18.291Z,98550.56
2022-10-04T03:31:48.847Z,98547.16
2022-10-04T03:34:18.510Z,98531.97
2022-10-04T03:36:49.395Z,98552.47
2022-10-04T03:39:27.454Z,98561.75
2022-10-04T03:41:58.019Z,98559.16
2022-10-04T03:48:38.491Z,98553.34
2022-10-04T03:51:09.391Z,98539.75
2022-10-04T03:53:43.292Z,98555.69
2022-10-04T03:56:18.701Z,98538.81
2022-10-04T03:58:48.211Z,98565.81
2022-10-04T04:01:26.032Z,98562.38
2022-10-04T04:04:03.743Z,98584.72
2022-10-04T04:06:39.208Z,98575.25
2022-10-04T04:09:08.010Z,98566.06
2022-10-04T04:11:38.361Z,98583.06
2022-10-04T04:14:09.651Z,98577.84
2022-10-04T04:16:38.824Z,98572.75
2022-10-04T04:19:14.043Z,98594.25
2022-10-04T04:21:43.063Z,98583.13
2022-10-04T04:24:23.915Z,98572.97
2022-10-04T04:26:57.021Z,98595.13
2022-10-04T04:29:27.604Z,98594.16
2022-10-04T04:31:59.732Z,98592.44
2022-10-04T04:34:30.318Z,98580.53
2022-10-04T04:37:00.570Z,98593.25
2022-10-04T04:39:38.278Z,98545.69
2022-10-04T04:42:15.149Z,98584.50
2022-10-04T04:44:48.804Z,98574.34
2022-10-04T04:47:27.189Z,98588.88
2022-10-04T04:49:57.077Z,98587.97
2022-10-04T04:52:27.907Z,98606.63
2022-10-04T04:54:56.901Z,98616.88
2022-10-04T04:57:26.909Z,98608.22
2022-10-04T04:59:58.417Z,98619.25
2022-10-04T05:02:35.228Z,98592.72
2022-10-04T05:05:18.264Z,98607.91
2022-10-04T05:07:46.705Z,98621.41
2022-10-04T05:10:23.665Z,98596.47
2022-10-04T05:12:53.616Z,98634.16
2022-10-04T05:15:22.662Z,98622.88
2022-10-04T05:17:51.009Z,98623.16
2022-10-04T05:20:19.907Z,98631.41
2022-10-04T05:22:49.428Z,98612.25
2022-10-04T05:25:26.291Z,98611.88
2022-10-04T05:27:56.985Z,98620.19
2022-10-04T05:30:36.868Z,98606.53
2022-10-04T05:33:07.783Z,98621.16
2022-10-04T05:35:44.514Z,98642.56
2022-10-04T05:38:17.342Z,98644.38
2022-10-04T05:40:50.385Z,98636.59
2022-10-04T05:43:26.933Z,98640.88
2022-10-04T05:46:28.591Z,98648.50
2022-10-04T05:48:58.397Z,98648.25
2022-10-04T05:51:29.657Z,98662.00
2022-10-04T05:53:59.477Z,98654.22
2022-10-04T05:56:57.485Z,98657.75
2022-10-04T05:59:41.838Z,98640.53
2022-10-04T06:02:21.101Z,98656.69
2022-10-04T06:05:02.775Z,98656.94
2022-10-04T06:07:36.467Z,98665.28
2022-10-04T06:10:24.574Z,98657.59
2022-10-04T06:12:56.982Z,98663.41
2022-10-04T06:15:41.520Z,98636.19
2022-10-04T06:18:22.977Z,98672.53
2022-10-04T06:21:12.457Z,98629.38
2022-10-04T06:23:46.573Z,98664.81
2022-10-04T06:26:21.246Z,98652.91
2022-10-04T06:28:50.009Z,98678.50
2022-10-04T06:31:35.903Z,98683.69
2022-10-04T06:34:25.254Z,98676.81
2022-10-04T06:37:06.928Z,98679.22
2022-10-04T06:40:17.223Z,98682.63
2022-10-04T06:43:00.655Z,98676.34
2022-10-04T06:45:41.733Z,98687.88
2022-10-04T06:49:01.735Z,98680.22
2022-10-04T06:51:41.907Z,98684.66
2022-10-04T06:54:24.355Z,98686.38
2022-10-04T06:57:10.211Z,98689.50
2022-10-04T06:59:59.055Z,98690.47
2022-10-04T07:02:32.178Z,98696.16
2022-10-04T07:05:09.386Z,98691.09
2022-10-04T07:07:40.191Z,98689.56
2022-10-04T07:10:23.397Z,98686.97
2022-10-04T07:13:01.170Z,98700.09
2022-10-04T07:15:32.013Z,98660.84
2022-10-04T07:18:06.541Z,98653.19
2022-10-04T07:20:39.228Z,98655.53
2022-10-04T07:23:14.417Z,98673.38
2022-10-04T07:25:46.839Z,98662.75
2022-10-04T07:28:40.488Z,98657.84
2022-10-04T07:31:14.267Z,98698.44
2022-10-04T07:33:46.257Z,98697.47
2022-10-04T07:36:21.860Z,98699.31
2022-10-04T07:38:53.346Z,98695.13
2022-10-04T07:41:24.512Z,98697.72
2022-10-04T07:43:56.252Z,98687.41
2022-10-04T07:46:41.172Z,98706.84
2022-10-04T07:49:13.615Z,98695.13
2022-10-04T07:52:02.515Z,98667.22
2022-10-04T07:54:38.726Z,98685.38
2022-10-04T07:57:13.254Z,98672.31
2022-10-04T07:59:42.076Z,98683.94
2022-10-04T08:02:19.953Z,98649.19
2022-10-04T08:04:55.988Z,98674.06
2022-10-04T08:07:28.322Z,98673.09
2022-10-04T08:10:02.930Z,98659.72
2022-10-04T08:12:41.989Z,98687.16
2022-10-04T08:15:37.972Z,98693.59
2022-10-04T08:18:31.281Z,98668.63
2022-10-04T08:21:01.150Z,98669.94
2022-10-04T08:23:56.018Z,98661.16
2022-10-04T08:26:36.662Z,98656.59
2022-10-04T08:29:42.646Z,98681.16
2022-10-04T08:32:31.906Z,98675.63
2022-10-04T08:35:26.312Z,98679.09
2022-10-04T08:38:06.491Z,98660.09
2022-10-04T08:40:58.087Z,98683.97
2022-10-04T08:43:50.659Z,98679.50
2022-10-04T08:46:33.157Z,98653.84
2022-10-04T08:49:17.726Z,98669.66
2022-10-04T08:52:09.100Z,98665.78
2022-10-04T08:55:20.985Z,98661.78
2022-10-04T08:58:06.428Z,98666.03
2022-10-04T09:00:45.735Z,98681.16
2022-10-04T09:03:47.460Z,98680.13
2022-10-04T09:06:39.063Z,98672.38
2022-10-04T09:09:44.735Z,98656.34
2022-10-04T09:12:37.382Z,98669.63
2022-10-04T09:15:27.792Z,98654.47
2022-10-04T09:18:03.517Z,98645.84
2022-10-04T09:20:46.612Z,98636.56
2022-10-04T09:23:37.504Z,98649.00
2022-10-04T09:26:19.851Z,98660.59
2022-10-04T09:29:10.099Z,98649.41
2022-10-04T09:32:29.273Z,98645.28
2022-10-04T09:35:38.018Z,98650.06
2022-10-04T09:39:43.472Z,98641.91
2022-10-04T09:42:43.064Z,98634.69
2022-10-04T09:45:27.630Z,98610.03
2022-10-04T09:48:07.917Z,98618.75
2022-10-04T09:51:08.119Z,98616.16
2022-10-04T09:53:46.533Z,98604.94
2022-10-04T09:56:26.997Z,98643.53
2022-10-04T09:59:22.203Z,98648.94
2022-10-04T10:01:59.706Z,98636.63
2022-10-04T10:04:42.376Z,98642.75
2022-10-04T10:07:33.108Z,98637.72
2022-10-04T10:10:29.643Z,98657.50
2022-10-04T10:13:39.682Z,98655.97
2022-10-04T10:16:20.184Z,98677.00
2022-10-04T10:18:59.464Z,98649.06
2022-10-04T10:21:37.675Z,98667.91
2022-10-04T10:24:20.239Z,98646.16
2022-10-04T10:26:56.582Z,98688.16
2022-10-04T10:29:54.801Z,98708.06
2022-10-04T10:32:49.404Z,98721.66
2022-10-04T10:35:53.062Z,98731.94
2022-10-04T10:38:40.412Z,98776.03
2022-10-04T10:41:30.359Z,98752.34
2022-10-04T10:44:10.385Z,98775.97
2022-10-04T10:46:51.471Z,98817.88
2022-10-04T10:49:28.315Z,98840.97
2022-10-04T10:52:39.845Z,98815.53
2022-10-04T10:55:30.372Z,98845.13
2022-10-04T10:58:22.829Z,98839.94
2022-10-04T11:00:54.698Z,98848.56
2022-10-04T11:03:36.202Z,98832.31
2022-10-04T11:06:17.985Z,98853.00
2022-10-04T11:09:22.065Z,98854.00
2022-10-04T11:12:40.125Z,98879.19
2022-10-04T11:15:34.402Z,98873.47
2022-10-04T11:18:36.422Z,98862.47
2022-10-04T11:21:40.202Z,98879.34
2022-10-04T11:24:31.856Z,98879.25
2022-10-04T11:27:06.675Z,98877.16
2022-10-04T11:29:56.125Z,98885.56
2022-10-04T11:32:49.585Z,98878.69
2022-10-04T11:35:51.236Z,98880.53
2022-10-04T11:38:31.195Z,98858.66
2022-10-04T11:41:13.947Z,98860.19
2022-10-04T11:44:07.470Z,98882.47
2022-10-04T11:46:40.239Z,98885.69
2022-10-04T11:49:23.587Z,98895.88
2022-10-04T11:55:37.448Z,98901.25
2022-10-04T11:58:12.191Z,98911.66
2022-10-04T12:00:54.948Z,98905.41
2022-10-04T12:03:45.576Z,98914.72
2022-10-04T12:06:24.924Z,98896.59
2022-10-04T12:09:05.518Z,98908.31
2022-10-04T12:12:38.907Z,98912.34
2022-10-04T12:15:24.593Z,98909.84
2022-10-04T12:18:37.391Z,98914.84
2022-10-04T12:21:34.972Z,98919.38
2022-10-04T12:24:39.294Z,98913.25
2022-10-04T12:27:39.208Z,98911.28
2022-10-04T12:30:24.047Z,98928.00
2022-10-04T12:33:05.946Z,98927.75
2022-10-04T12:35:49.158Z,98917.38
2022-10-04T12:38:32.807Z,98935.28
2022-10-04T12:41:05.145Z,98930.00
2022-10-04T12:43:38.773Z,98937.72
2022-10-04T12:46:17.359Z,98941.06
2022-10-04T12:48:58.137Z,98948.53
2022-10-04T12:59:02.301Z,98955.91
2022-10-04T13:01:37.827Z,98947.25
2022-10-04T13:04:14.747Z,98961.88
2022-10-04T13:06:55.487Z,98959.75
2022-10-04T13:09:32.370Z,98964.88
2022-10-04T13:12:14.621Z,98957.91
2022-10-04T13:15:14.697Z,98962.06
2022-10-04T13:17:50.229Z,98960.56
2022-10-04T13:20:33.365Z,98954.78
2022-10-04T13:23:09.008Z,98944.78
2022-10-04T13:26:03.751Z,98947.47
2022-10-04T13:28:37.991Z,98973.19
2022-10-04T13:31:12.868Z,98967.06
2022-10-04T13:33:49.441Z,98963.59
2022-10-04T13:36:21.656Z,98959.28
2022-10-04T13:39:22.058Z,98976.50
2022-10-04T13:42:19.392Z,98983.50
2022-10-04T13:45:07.439Z,98971.56
2022-10-04T13:47:49.892Z,98968.25
2022-10-04T13:50:32.711Z,98976.84
2022-10-04T13:53:25.327Z,98974.25
2022-10-04T13:56:22.300Z,98984.69
2022-10-04T13:58:55.859Z,98984.88
2022-10-04T14:02:01.912Z,98958.28
2022-10-04T14:04:54.618Z,98980.53
2022-10-04T14:07:50.554Z,98974.56
2022-10-04T14:10:36.516Z,98972.09
2022-10-04T14:13:45.343Z,98984.09
2022-10-04T14:16:43.154Z,98980.66
2022-10-04T14:19:43.315Z,98983.28
2022-10-04T14:22:51.208Z,98979.81
2022-10-04T14:25:41.585Z,98987.66
2022-10-04T14:28:40.849Z,98978.19
2022-10-04T14:31:22.203Z,98988.66
2022-10-04T14:34:17.089Z,98989.66
2022-10-04T14:37:01.153Z,99002.66
2022-10-04T14:39:55.507Z,98963.47
2022-10-04T14:42:37.681Z,98990.78
2022-10-04T14:45:21.310Z,99001.13
2022-10-04T14:48:12.470Z,98998.63
2022-10-04T14:50:51.525Z,99002.09
2022-10-04T14:53:27.750Z,98968.81
2022-10-04T14:56:27.262Z,99001.25
2022-10-04T14:59:05.019Z,99004.72
2022-10-04T15:01:33.634Z,99013.38
2022-10-04T15:04:13.025Z,99010.94
2022-10-04T15:06:48.750Z,99021.28
2022-10-04T15:09:56.534Z,99023.88
2022-10-04T15:13:09.965Z,99029.25
2022-10-04T15:15:55.622Z,99021.63
2022-10-04T15:18:31.827Z,99030.25
2022-10-04T15:21:02.768Z,98998.63
2022-10-04T15:23:37.978Z,99030.28
2022-10-04T15:26:39.213Z,99007.16
2022-10-04T15:29:16.291Z,99019.97
2022-10-04T15:31:54.474Z,99027.72
2022-10-04T15:34:33.542Z,99010.50
2022-10-04T15:37:09.958Z,99027.78
2022-10-04T15:40:15.965Z,99032.97
2022-10-04T15:42:59.945Z,99038.16
2022-10-04T15:45:49.124Z,99043.41
2022-10-04T15:48:33.154Z,99026.31
2022-10-04T15:51:07.566Z,99014.41
2022-10-04T15:54:11.801Z,99039.97
2022-10-04T15:56:49.600Z,99020.41
2022-10-04T15:59:36.375Z,99024.72
2022-10-04T16:02:36.020Z,99041.06
2022-10-04T16:05:19.518Z,99000.06
2022-10-04T16:08:06.537Z,99032.50
2022-10-04T16:10:58.745Z,99039.44
2022-10-04T16:13:50.013Z,99029.16
2022-10-04T16:16:32.781Z,99048.94
2022-10-04T16:19:11.814Z,99021.50
2022-10-04T16:21:51.938Z,99033.44
2022-10-04T16:24:58.920Z,99033.44
2022-10-04T16:27:59.447Z,99025.69
2022-10-04T16:30:30.186Z,99022.28
2022-10-04T16:33:23.146Z,99035.94
2022-10-04T16:36:05.359Z,99035.00
2022-10-04T16:38:36.593Z,98996.53
2022-10-04T16:41:11.738Z,99030.72
2022-10-04T16:43:50.138Z,99021.31
2022-10-04T16:46:28.069Z,99037.59
2022-10-04T16:48:58.900Z,99005.88
2022-10-04T16:51:57.420Z,99040.19
2022-10-04T16:55:02.947Z,99037.59
2022-10-04T16:57:31.989Z,99038.41
2022-10-04T17:00:05.922Z,99033.28
2022-10-04T17:02:55.635Z,99027.25
2022-10-04T17:06:00.569Z,99035.78
2022-10-04T17:08:48.325Z,99047.00
2022-10-04T17:11:30.610Z,99016.16
2022-10-04T17:14:02.498Z,99040.09
2022-10-04T17:16:38.031Z,99034.88
2022-10-04T17:19:30.192Z,99046.91
2022-10-04T17:22:07.508Z,99019.44
2022-10-04T17:24:47.227Z,99032.28
2022-10-04T17:27:26.247Z,99027.19
2022-10-04T17:30:12.653Z,99029.72
2022-10-04T17:32:50.193Z,99026.22
2022-10-04T17:35:41.412Z,99039.00
2022-10-04T17:38:11.777Z,99049.34
2022-10-04T17:40:49.005Z,99051.09
2022-10-04T17:43:23.831Z,99039.00
2022-10-04T17:45:59.392Z,99044.19
2022-10-04T17:48:47.073Z,99048.50
2022-10-04T17:51:51.052Z,99051.09
2022-10-04T17:54:40.421Z,99035.56
2022-10-04T17:57:27.364Z,99044.25
2022-10-04T18:00:09.544Z,99039.16
2022-10-04T18:02:59.879Z,99050.25
2022-10-04T18:05:31.004Z,99038.16
2022-10-04T18:08:03.195Z,99022.81
2022-10-04T18:10:35.150Z,99051.94
2022-10-04T18:13:07.860Z,99034.91
2022-10-04T18:15:40.017Z,99050.22
2022-10-04T18:18:16.387Z,99039.19
2022-10-04T18:21:07.552Z,99039.19
2022-10-04T18:23:39.534Z,99049.63
2022-10-04T18:26:17.644Z,99048.09
2022-10-04T18:28:48.886Z,99046.47
2022-10-04T18:31:33.433Z,99045.03
2022-10-04T18:34:08.840Z,99043.41
2022-10-04T18:36:51.932Z,99047.78
2022-10-04T18:39:22.017Z,99044.59
2022-10-04T18:42:01.334Z,99060.06
2022-10-04T18:44:44.506Z,99067.88
2022-10-04T18:47:21.324Z,99064.53
2022-10-04T18:49:52.336Z,99067.25
2022-10-04T18:52:30.236Z,99048.50
2022-10-04T18:55:06.996Z,99077.72
2022-10-04T18:57:59.429Z,99076.03
2022-10-04T19:00:51.187Z,99076.84
2022-10-04T19:03:25.465Z,99076.84
2022-10-04T19:05:59.744Z,99076.00
2022-10-04T19:08:37.677Z,99078.47
2022-10-04T19:11:09.508Z,99072.41
2022-10-04T19:13:43.368Z,99080.06
2022-10-04T19:16:17.497Z,99068.03
2022-10-04T19:18:57.959Z,99074.00
2022-10-04T19:21:32.269Z,99062.00
2022-10-04T19:24:27.077Z,99062.91
2022-10-04T19:27:00.829Z,99077.44
2022-10-04T19:29:41.681Z,99078.34
2022-10-04T19:32:15.700Z,99081.81
2022-10-04T19:34:53.999Z,99081.84
2022-10-04T19:37:25.229Z,99082.59
2022-10-04T19:39:59.751Z,99080.88
2022-10-04T19:42:34.251Z,99074.03
2022-10-04T19:45:12.765Z,99079.19
2022-10-04T19:47:46.434Z,99065.53
2022-10-04T19:50:23.944Z,99078.38
2022-10-04T19:52:54.746Z,99027.09
2022-10-04T19:55:27.663Z,99063.06
2022-10-04T19:58:03.624Z,99058.88
2022-10-04T20:00:33.210Z,99063.09
2022-10-04T20:03:03.215Z,99064.81
2022-10-04T20:05:31.645Z,99085.38
2022-10-04T20:08:05.234Z,99075.03
2022-10-04T20:10:35.790Z,99064.84
2022-10-04T20:13:21.314Z,99072.47
2022-10-04T20:15:55.918Z,99076.69
2022-10-04T20:19:00.832Z,99075.88
2022-10-04T20:21:33.013Z,99073.31
2022-10-04T20:24:01.823Z,99071.69
2022-10-04T20:26:54.737Z,99073.31
2022-10-04T20:30:04.464Z,99086.34
2022-10-04T20:32:56.193Z,99083.75
2022-10-04T20:36:08.616Z,99083.78
2022-10-04T20:38:53.485Z,99052.09
2022-10-04T20:42:04.804Z,99070.78
2022-10-04T20:44:54.586Z,99081.09
2022-10-04T20:47:50.127Z,99062.34
2022-10-04T20:50:32.865Z,99075.09
2022-10-04T20:53:04.105Z,99076.00
2022-10-04T20:55:35.828Z,99043.53
2022-10-04T20:58:20.064Z,99072.59
2022-10-04T21:00:52.819Z,99062.34
2022-10-04T21:03:21.823Z,99073.47
2022-10-04T21:06:05.237Z,99053.75
2022-10-04T21:08:34.337Z,99062.41
2022-10-04T21:11:08.696Z,99075.19
2022-10-04T21:13:45.321Z,99075.16
2022-10-04T21:16:34.232Z,99075.13
2022-10-04T21:19:50.558Z,99043.41
2022-10-04T21:22:38.771Z,99069.84
2022-10-04T21:25:32.268Z,99062.16
2022-10-04T21:28:45.304Z,99054.50
2022-10-04T21:31:15.093Z,99057.09
2022-10-04T21:33:43.493Z,99051.19
2022-10-04T21:36:11.872Z,99064.09
2022-10-04T21:38:40.306Z,99052.09
2022-10-04T21:41:08.743Z,99046.94
2022-10-04T21:43:37.413Z,99058.06
2022-10-04T21:46:06.001Z,99054.72
2022-10-04T21:48:35.784Z,99050.47
2022-10-04T21:51:04.157Z,99064.16
2022-10-04T21:53:32.509Z,99046.22
2022-10-04T21:56:00.796Z,99067.63
2022-10-04T21:58:29.266Z,99071.09
2022-10-04T22:00:57.646Z,99067.69
2022-10-04T22:03:26.050Z,99068.53
2022-10-04T22:05:55.791Z,99061.72
2022-10-04T22:08:24.188Z,99058.28
2022-10-04T22:10:57.463Z,99069.44
2022-10-04T22:13:26.929Z,99034.38
2022-10-04T22:15:55.412Z,99048.91
2022-10-04T22:18:23.894Z,99048.88
2022-10-04T22:20:52.226Z,99064.25
2022-10-04T22:23:24.022Z,99060.81
2022-10-04T22:25:52.672Z,99054.84
2022-10-04T22:28:23.639Z,99066.00
2022-10-04T22:30:53.329Z,99064.28
2022-10-04T22:33:29.874Z,99060.00
2022-10-04T22:35:59.704Z,99062.59
2022-10-04T22:38:29.562Z,99060.91
2022-10-04T22:40:58.488Z,99063.44
2022-10-04T22:43:26.865Z,99044.66
2022-10-04T22:45:56.024Z,99053.25
2022-10-04T22:48:26.712Z,99028.41
2022-10-04T22:50:55.049Z,99061.75
2022-10-04T22:53:24.280Z,99045.53
2022-10-04T22:55:56.000Z,99066.03
2022-10-04T22:58:24.338Z,99060.88
2022-10-04T23:00:52.675Z,99063.47
2022-10-04T23:03:28.274Z,99069.44
2022-10-04T23:05:56.657Z,99066.84
2022-10-04T23:08:25.012Z,99064.28
2022-10-04T23:10:56.692Z,99071.16
2022-10-04T23:13:25.685Z,99043.81
2022-10-04T23:15:54.447Z,99045.47
2022-10-04T23:18:23.025Z,99043.00
2022-10-04T23:20:56.081Z,99063.47
2022-10-04T23:23:24.434Z,99065.28
2022-10-04T23:25:52.784Z,99060.13
2022-10-04T23:28:22.996Z,99057.63
2022-10-04T23:31:01.880Z,99064.50
2022-10-04T23:33:30.214Z,99059.34
2022-10-04T23:35:58.536Z,99060.16
2022-10-04T23:38:26.860Z,99057.63
2022-10-04T23:40:55.386Z,99053.34
2022-10-04T23:43:26.940Z,99038.81
2022-10-04T23:45:57.145Z,99037.09
2022-10-04T23:48:27.852Z,99055.91
2022-10-04T23:50:57.607Z,99047.28
2022-10-04T23:53:28.306Z,99058.44
2022-10-04T23:55:57.018Z,99054.13
2022-10-04T23:58:30.893Z,99054.13
